< Typhoon 200421 2004 Season Typhoon 200423 >
Typhoon 200422 (MA-ON)
General InformationTrack Information on Google MapsDetailed Wind InformationAccess Analytics MapList of All Images || NewsDisaster Info.WeblogTrackbackTyphoon FrontResourceGoogle EarthGE AnimationAtom FeedGeoJSON
Detalied Best Track (Time Zone = UTC)
Year Month Day Hour Lat. Long. Pressure (hPa) Wind (kt) Class Image Chart
2004 10 3 06 16.5 135.3 1002 0 2 Image Chart
2004 10 3 12 16.5 134.9 1002 0 2 Image Chart
2004 10 3 18 16.6 134.6 1002 0 2 Image Chart
2004 10 4 00 16.6 134.5 1000 0 2 Image Chart
2004 10 4 06 16.6 134.4 996 40 3 Image Chart
2004 10 4 12 16.8 134.4 994 40 3 Image Chart
2004 10 4 18 17.0 134.5 994 40 3 Image Chart
2004 10 5 00 18.0 134.5 994 40 3 Image Chart
2004 10 5 06 18.9 134.6 990 45 3 Image Chart
2004 10 5 12 19.9 134.9 990 45 3 Image Chart
2004 10 5 18 20.3 134.3 990 45 3 Image Chart
2004 10 6 00 20.5 133.5 985 50 4 Image Chart
2004 10 6 06 20.7 132.8 980 55 4 Image Chart
2004 10 6 12 21.0 132.2 975 60 4 Image Chart
2004 10 6 18 21.4 131.6 965 70 5 Image Chart
2004 10 7 00 21.9 130.9 955 75 5 Image Chart
2004 10 7 06 22.2 130.6 940 90 5 Image Chart
2004 10 7 12 22.7 130.7 930 95 5 Image Chart
2004 10 7 15 23.0 130.8 925 95 5 Image Chart
2004 10 7 18 23.3 130.9 920 100 5 Image Chart
2004 10 7 21 23.5 131.1 920 100 5 Image Chart
2004 10 8 00 23.9 131.4 920 100 5 Image Chart
2004 10 8 03 24.6 131.8 920 100 5 Image Chart
2004 10 8 06 25.1 132.2 920 100 5 Image Chart
2004 10 8 09 26.1 132.8 920 100 5 Image Chart
2004 10 8 12 27.0 133.3 925 100 5 Image Chart
2004 10 8 15 27.9 133.8 930 100 5 Image Chart
2004 10 8 18 28.9 134.5 935 95 5 Image Chart
2004 10 8 21 30.2 135.2 940 90 5 Image Chart
2004 10 9 00 31.6 136.1 945 85 5 Image Chart
2004 10 9 03 33.1 137.1 950 80 5 Image Chart
2004 10 9 06 34.3 138.3 950 80 5 Image Chart
2004 10 9 07 34.8 138.8 950 80 5 Image Chart
2004 10 9 08 35.2 139.5 965 70 5 Image Chart
2004 10 9 09 35.6 140.0 980 60 4 Image Chart
2004 10 9 12 36.7 141.6 985 55 4 Image Chart
2004 10 9 15 37.5 143.2 990 55 4 Image Chart
2004 10 9 18 38.1 145.1 992 50 4 Image Chart
2004 10 9 21 38.7 147.1 994 45 3 Image Chart
2004 10 10 00 39.6 150.1 996 0 6 Image Chart
Japan Meteorological Agency Best Track Data | Correction Date : 2010-03-26
< Typhoon 200421 2004 Season Typhoon 200423 >

Help